sensor_id;sensor_type;location;lat;lon;timestamp;P1;durP1;ratioP1;P2;durP2;ratioP2
68886;SDS011;55925;51.764;6.402;2023-04-15T00:01:41;10.27;;;5.35;;
68886;SDS011;55925;51.764;6.402;2023-04-15T00:04:07;10.85;;;6.22;;
68886;SDS011;55925;51.764;6.402;2023-04-15T00:06:33;9.57;;;5.50;;
68886;SDS011;55925;51.764;6.402;2023-04-15T00:08:59;11.32;;;5.78;;
68886;SDS011;55925;51.764;6.402;2023-04-15T00:11:25;10.82;;;5.82;;
68886;SDS011;55925;51.764;6.402;2023-04-15T00:13:51;9.82;;;5.00;;
68886;SDS011;55925;51.764;6.402;2023-04-15T00:16:17;12.95;;;5.20;;
68886;SDS011;55925;51.764;6.402;2023-04-15T00:18:43;9.13;;;5.47;;
68886;SDS011;55925;51.764;6.402;2023-04-15T00:21:09;10.57;;;5.80;;
68886;SDS011;55925;51.764;6.402;2023-04-15T00:23:35;8.20;;;4.85;;
68886;SDS011;55925;51.764;6.402;2023-04-15T00:26:01;9.27;;;5.63;;
68886;SDS011;55925;51.764;6.402;2023-04-15T00:28:27;12.80;;;6.10;;
68886;SDS011;55925;51.764;6.402;2023-04-15T00:30:54;11.57;;;4.57;;
68886;SDS011;55925;51.764;6.402;2023-04-15T00:33:21;9.85;;;5.43;;
68886;SDS011;55925;51.764;6.402;2023-04-15T00:35:47;10.40;;;5.90;;
68886;SDS011;55925;51.764;6.402;2023-04-15T00:38:13;11.82;;;5.35;;
68886;SDS011;55925;51.764;6.402;2023-04-15T00:40:39;9.68;;;5.25;;
68886;SDS011;55925;51.764;6.402;2023-04-15T00:43:06;9.73;;;4.82;;
68886;SDS011;55925;51.764;6.402;2023-04-15T00:45:32;11.93;;;5.05;;
68886;SDS011;55925;51.764;6.402;2023-04-15T00:47:58;10.25;;;4.72;;
68886;SDS011;55925;51.764;6.402;2023-04-15T00:50:24;9.63;;;5.05;;
68886;SDS011;55925;51.764;6.402;2023-04-15T00:52:50;10.35;;;5.28;;
68886;SDS011;55925;51.764;6.402;2023-04-15T00:55:16;11.63;;;5.20;;
68886;SDS011;55925;51.764;6.402;2023-04-15T00:57:43;9.15;;;5.40;;
68886;SDS011;55925;51.764;6.402;2023-04-15T01:00:09;8.98;;;6.03;;
68886;SDS011;55925;51.764;6.402;2023-04-15T01:02:36;10.57;;;5.70;;
68886;SDS011;55925;51.764;6.402;2023-04-15T01:05:03;13.57;;;4.97;;
68886;SDS011;55925;51.764;6.402;2023-04-15T01:07:29;9.80;;;5.38;;
68886;SDS011;55925;51.764;6.402;2023-04-15T01:09:55;10.35;;;5.70;;
68886;SDS011;55925;51.764;6.402;2023-04-15T01:12:22;12.32;;;6.13;;
68886;SDS011;55925;51.764;6.402;2023-04-15T01:14:49;10.02;;;5.50;;
68886;SDS011;55925;51.764;6.402;2023-04-15T01:17:15;11.20;;;5.53;;
68886;SDS011;55925;51.764;6.402;2023-04-15T01:19:42;10.13;;;5.35;;
68886;SDS011;55925;51.764;6.402;2023-04-15T01:22:08;12.25;;;6.10;;
68886;SDS011;55925;51.764;6.402;2023-04-15T01:24:34;10.68;;;5.78;;
68886;SDS011;55925;51.764;6.402;2023-04-15T01:27:00;9.82;;;5.72;;
68886;SDS011;55925;51.764;6.402;2023-04-15T01:29:27;9.55;;;4.85;;
68886;SDS011;55925;51.764;6.402;2023-04-15T01:31:54;10.68;;;5.72;;
68886;SDS011;55925;51.764;6.402;2023-04-15T01:34:20;11.57;;;5.88;;
68886;SDS011;55925;51.764;6.402;2023-04-15T01:36:46;10.88;;;5.57;;
68886;SDS011;55925;51.764;6.402;2023-04-15T01:39:13;10.75;;;6.30;;
68886;SDS011;55925;51.764;6.402;2023-04-15T01:41:39;10.25;;;5.53;;
68886;SDS011;55925;51.764;6.402;2023-04-15T01:44:06;9.73;;;5.65;;
68886;SDS011;55925;51.764;6.402;2023-04-15T01:46:33;9.80;;;5.78;;
68886;SDS011;55925;51.764;6.402;2023-04-15T01:48:59;9.55;;;5.68;;
68886;SDS011;55925;51.764;6.402;2023-04-15T01:51:25;11.63;;;5.88;;
68886;SDS011;55925;51.764;6.402;2023-04-15T01:53:51;10.23;;;5.57;;
68886;SDS011;55925;51.764;6.402;2023-04-15T01:56:17;12.15;;;5.90;;
68886;SDS011;55925;51.764;6.402;2023-04-15T01:58:43;10.02;;;5.90;;
68886;SDS011;55925;51.764;6.402;2023-04-15T02:01:09;10.10;;;5.95;;
68886;SDS011;55925;51.764;6.402;2023-04-15T02:03:36;11.10;;;5.80;;
68886;SDS011;55925;51.764;6.402;2023-04-15T02:06:03;10.32;;;6.03;;
68886;SDS011;55925;51.764;6.402;2023-04-15T02:08:30;10.63;;;6.22;;
68886;SDS011;55925;51.764;6.402;2023-04-15T02:10:56;13.90;;;6.60;;
68886;SDS011;55925;51.764;6.402;2023-04-15T02:13:22;11.23;;;6.38;;
68886;SDS011;55925;51.764;6.402;2023-04-15T02:15:48;11.27;;;6.25;;
68886;SDS011;55925;51.764;6.402;2023-04-15T02:18:15;11.35;;;6.53;;
68886;SDS011;55925;51.764;6.402;2023-04-15T02:20:41;12.63;;;7.10;;
68886;SDS011;55925;51.764;6.402;2023-04-15T02:23:11;11.48;;;5.97;;
68886;SDS011;55925;51.764;6.402;2023-04-15T02:25:37;12.25;;;7.07;;
68886;SDS011;55925;51.764;6.402;2023-04-15T02:28:04;11.27;;;6.72;;
68886;SDS011;55925;51.764;6.402;2023-04-15T02:30:30;12.45;;;6.10;;
68886;SDS011;55925;51.764;6.402;2023-04-15T02:32:57;13.52;;;7.18;;
68886;SDS011;55925;51.764;6.402;2023-04-15T02:35:23;13.48;;;7.18;;
68886;SDS011;55925;51.764;6.402;2023-04-15T02:37:50;14.05;;;6.60;;
68886;SDS011;55925;51.764;6.402;2023-04-15T02:40:16;14.20;;;6.90;;
68886;SDS011;55925;51.764;6.402;2023-04-15T02:42:42;13.07;;;7.18;;
68886;SDS011;55925;51.764;6.402;2023-04-15T02:45:09;14.77;;;7.25;;
68886;SDS011;55925;51.764;6.402;2023-04-15T02:47:36;11.65;;;6.47;;
68886;SDS011;55925;51.764;6.402;2023-04-15T02:50:06;12.20;;;6.60;;
68886;SDS011;55925;51.764;6.402;2023-04-15T02:52:33;12.40;;;6.03;;
68886;SDS011;55925;51.764;6.402;2023-04-15T02:54:59;13.60;;;7.30;;
68886;SDS011;55925;51.764;6.402;2023-04-15T02:57:26;12.32;;;7.13;;
68886;SDS011;55925;51.764;6.402;2023-04-15T02:59:53;13.00;;;7.18;;
68886;SDS011;55925;51.764;6.402;2023-04-15T03:02:19;11.57;;;6.80;;
68886;SDS011;55925;51.764;6.402;2023-04-15T03:04:45;13.30;;;7.18;;
68886;SDS011;55925;51.764;6.402;2023-04-15T03:07:11;13.23;;;7.00;;
68886;SDS011;55925;51.764;6.402;2023-04-15T03:09:37;14.50;;;7.22;;
68886;SDS011;55925;51.764;6.402;2023-04-15T03:12:05;13.95;;;7.47;;
68886;SDS011;55925;51.764;6.402;2023-04-15T03:14:31;14.68;;;6.53;;
68886;SDS011;55925;51.764;6.402;2023-04-15T03:16:57;12.35;;;7.05;;
68886;SDS011;55925;51.764;6.402;2023-04-15T03:19:23;12.52;;;7.22;;
68886;SDS011;55925;51.764;6.402;2023-04-15T03:21:49;13.77;;;6.97;;
68886;SDS011;55925;51.764;6.402;2023-04-15T03:24:16;12.63;;;7.20;;
68886;SDS011;55925;51.764;6.402;2023-04-15T03:26:42;11.25;;;6.55;;
68886;SDS011;55925;51.764;6.402;2023-04-15T03:29:08;14.10;;;6.97;;
68886;SDS011;55925;51.764;6.402;2023-04-15T03:31:34;15.50;;;7.15;;
68886;SDS011;55925;51.764;6.402;2023-04-15T03:34:00;12.40;;;7.15;;
68886;SDS011;55925;51.764;6.402;2023-04-15T03:36:27;15.55;;;7.55;;
68886;SDS011;55925;51.764;6.402;2023-04-15T03:38:56;15.60;;;6.97;;
68886;SDS011;55925;51.764;6.402;2023-04-15T03:41:22;13.43;;;6.80;;
68886;SDS011;55925;51.764;6.402;2023-04-15T03:43:48;12.20;;;6.55;;
68886;SDS011;55925;51.764;6.402;2023-04-15T03:46:16;11.70;;;7.07;;
68886;SDS011;55925;51.764;6.402;2023-04-15T03:48:42;12.07;;;6.68;;
68886;SDS011;55925;51.764;6.402;2023-04-15T03:51:08;13.65;;;6.90;;
68886;SDS011;55925;51.764;6.402;2023-04-15T03:53:34;13.02;;;7.28;;
68886;SDS011;55925;51.764;6.402;2023-04-15T03:56:00;16.17;;;8.18;;
68886;SDS011;55925;51.764;6.402;2023-04-15T03:58:26;13.07;;;6.72;;
68886;SDS011;55925;51.764;6.402;2023-04-15T04:00:52;12.98;;;7.13;;
68886;SDS011;55925;51.764;6.402;2023-04-15T04:03:19;13.38;;;7.55;;
68886;SDS011;55925;51.764;6.402;2023-04-15T04:05:45;14.35;;;6.50;;
68886;SDS011;55925;51.764;6.402;2023-04-15T04:08:11;14.30;;;7.60;;
68886;SDS011;55925;51.764;6.402;2023-04-15T04:10:41;11.90;;;6.70;;
68886;SDS011;55925;51.764;6.402;2023-04-15T04:13:07;14.57;;;7.97;;
68886;SDS011;55925;51.764;6.402;2023-04-15T04:15:33;13.77;;;6.88;;
68886;SDS011;55925;51.764;6.402;2023-04-15T04:17:59;14.50;;;7.05;;
68886;SDS011;55925;51.764;6.402;2023-04-15T04:20:25;12.85;;;6.85;;
68886;SDS011;55925;51.764;6.402;2023-04-15T04:22:51;15.30;;;7.97;;
68886;SDS011;55925;51.764;6.402;2023-04-15T04:25:17;14.90;;;8.30;;
68886;SDS011;55925;51.764;6.402;2023-04-15T04:27:43;15.25;;;7.55;;
68886;SDS011;55925;51.764;6.402;2023-04-15T04:30:09;13.82;;;7.97;;
68886;SDS011;55925;51.764;6.402;2023-04-15T04:32:36;15.27;;;7.68;;
68886;SDS011;55925;51.764;6.402;2023-04-15T04:35:02;15.38;;;8.43;;
68886;SDS011;55925;51.764;6.402;2023-04-15T04:37:28;13.73;;;8.07;;
68886;SDS011;55925;51.764;6.402;2023-04-15T04:39:54;14.88;;;8.20;;
68886;SDS011;55925;51.764;6.402;2023-04-15T04:42:21;18.52;;;9.10;;
68886;SDS011;55925;51.764;6.402;2023-04-15T04:44:47;14.73;;;7.78;;
68886;SDS011;55925;51.764;6.402;2023-04-15T04:47:13;18.17;;;7.85;;
68886;SDS011;55925;51.764;6.402;2023-04-15T04:49:39;14.13;;;7.53;;
68886;SDS011;55925;51.764;6.402;2023-04-15T04:52:05;15.75;;;8.05;;
68886;SDS011;55925;51.764;6.402;2023-04-15T04:54:31;16.13;;;8.05;;
68886;SDS011;55925;51.764;6.402;2023-04-15T04:56:57;15.77;;;8.35;;
68886;SDS011;55925;51.764;6.402;2023-04-15T04:59:24;18.25;;;8.40;;
68886;SDS011;55925;51.764;6.402;2023-04-15T05:01:50;18.00;;;8.80;;
68886;SDS011;55925;51.764;6.402;2023-04-15T05:04:16;18.20;;;9.15;;
68886;SDS011;55925;51.764;6.402;2023-04-15T05:06:42;18.67;;;9.10;;
68886;SDS011;55925;51.764;6.402;2023-04-15T05:09:08;20.98;;;8.90;;
68886;SDS011;55925;51.764;6.402;2023-04-15T05:11:34;20.05;;;9.40;;
68886;SDS011;55925;51.764;6.402;2023-04-15T05:14:00;15.77;;;9.23;;
68886;SDS011;55925;51.764;6.402;2023-04-15T05:16:26;17.20;;;8.50;;
68886;SDS011;55925;51.764;6.402;2023-04-15T05:18:52;17.42;;;9.43;;
68886;SDS011;55925;51.764;6.402;2023-04-15T05:21:19;15.73;;;9.07;;
68886;SDS011;55925;51.764;6.402;2023-04-15T05:23:45;15.30;;;8.55;;
68886;SDS011;55925;51.764;6.402;2023-04-15T05:26:11;17.95;;;9.25;;
68886;SDS011;55925;51.764;6.402;2023-04-15T05:28:37;18.88;;;9.23;;
68886;SDS011;55925;51.764;6.402;2023-04-15T05:31:03;15.77;;;8.13;;
68886;SDS011;55925;51.764;6.402;2023-04-15T05:33:29;17.95;;;9.27;;
68886;SDS011;55925;51.764;6.402;2023-04-15T05:35:55;16.95;;;9.32;;
68886;SDS011;55925;51.764;6.402;2023-04-15T05:38:21;19.42;;;9.43;;
68886;SDS011;55925;51.764;6.402;2023-04-15T05:40:47;16.92;;;9.52;;
68886;SDS011;55925;51.764;6.402;2023-04-15T05:43:13;18.27;;;9.50;;
68886;SDS011;55925;51.764;6.402;2023-04-15T05:45:39;16.70;;;9.18;;
68886;SDS011;55925;51.764;6.402;2023-04-15T05:48:05;16.73;;;9.02;;
68886;SDS011;55925;51.764;6.402;2023-04-15T05:50:32;21.20;;;10.55;;
68886;SDS011;55925;51.764;6.402;2023-04-15T05:52:58;17.63;;;9.48;;
68886;SDS011;55925;51.764;6.402;2023-04-15T05:55:24;16.77;;;9.52;;
68886;SDS011;55925;51.764;6.402;2023-04-15T05:57:51;17.45;;;9.40;;
68886;SDS011;55925;51.764;6.402;2023-04-15T06:00:17;17.52;;;9.23;;
68886;SDS011;55925;51.764;6.402;2023-04-15T06:02:44;18.88;;;10.02;;
68886;SDS011;55925;51.764;6.402;2023-04-15T06:05:10;18.75;;;9.50;;
68886;SDS011;55925;51.764;6.402;2023-04-15T06:07:36;18.75;;;10.20;;
68886;SDS011;55925;51.764;6.402;2023-04-15T06:10:02;16.42;;;8.77;;
68886;SDS011;55925;51.764;6.402;2023-04-15T06:12:28;15.23;;;8.73;;
68886;SDS011;55925;51.764;6.402;2023-04-15T06:14:54;17.27;;;9.35;;
68886;SDS011;55925;51.764;6.402;2023-04-15T06:17:20;17.02;;;8.55;;
68886;SDS011;55925;51.764;6.402;2023-04-15T06:19:46;15.52;;;8.75;;
68886;SDS011;55925;51.764;6.402;2023-04-15T06:22:14;18.25;;;8.85;;
68886;SDS011;55925;51.764;6.402;2023-04-15T06:24:40;18.75;;;9.27;;
68886;SDS011;55925;51.764;6.402;2023-04-15T06:27:06;16.15;;;8.88;;
68886;SDS011;55925;51.764;6.402;2023-04-15T06:29:32;15.85;;;8.70;;
68886;SDS011;55925;51.764;6.402;2023-04-15T06:31:58;19.27;;;9.15;;
68886;SDS011;55925;51.764;6.402;2023-04-15T06:34:24;15.95;;;9.00;;
68886;SDS011;55925;51.764;6.402;2023-04-15T06:36:51;16.20;;;8.95;;
68886;SDS011;55925;51.764;6.402;2023-04-15T06:39:18;18.70;;;8.93;;
68886;SDS011;55925;51.764;6.402;2023-04-15T06:41:44;15.57;;;8.38;;
68886;SDS011;55925;51.764;6.402;2023-04-15T06:44:10;18.02;;;9.93;;
68886;SDS011;55925;51.764;6.402;2023-04-15T06:46:36;16.02;;;8.85;;
68886;SDS011;55925;51.764;6.402;2023-04-15T06:49:02;16.10;;;9.20;;
68886;SDS011;55925;51.764;6.402;2023-04-15T06:51:29;15.88;;;8.98;;
68886;SDS011;55925;51.764;6.402;2023-04-15T06:53:55;18.08;;;9.10;;
68886;SDS011;55925;51.764;6.402;2023-04-15T06:56:21;16.92;;;9.68;;
68886;SDS011;55925;51.764;6.402;2023-04-15T06:58:47;17.75;;;9.32;;
68886;SDS011;55925;51.764;6.402;2023-04-15T07:01:13;16.92;;;8.55;;
68886;SDS011;55925;51.764;6.402;2023-04-15T07:03:39;18.67;;;10.05;;
68886;SDS011;55925;51.764;6.402;2023-04-15T07:06:06;18.98;;;9.75;;
68886;SDS011;55925;51.764;6.402;2023-04-15T07:08:33;18.70;;;9.10;;
68886;SDS011;55925;51.764;6.402;2023-04-15T07:10:59;16.17;;;8.48;;
68886;SDS011;55925;51.764;6.402;2023-04-15T07:13:25;15.65;;;8.45;;
68886;SDS011;55925;51.764;6.402;2023-04-15T07:15:51;16.23;;;8.60;;
68886;SDS011;55925;51.764;6.402;2023-04-15T07:18:17;15.32;;;8.40;;
68886;SDS011;55925;51.764;6.402;2023-04-15T07:20:43;14.18;;;8.38;;
68886;SDS011;55925;51.764;6.402;2023-04-15T07:23:09;14.43;;;8.68;;
68886;SDS011;55925;51.764;6.402;2023-04-15T07:25:35;14.27;;;8.38;;
68886;SDS011;55925;51.764;6.402;2023-04-15T07:28:01;14.77;;;8.43;;
68886;SDS011;55925;51.764;6.402;2023-04-15T07:30:27;15.50;;;8.50;;
68886;SDS011;55925;51.764;6.402;2023-04-15T07:32:54;15.30;;;7.07;;
68886;SDS011;55925;51.764;6.402;2023-04-15T07:35:20;13.60;;;7.88;;
68886;SDS011;55925;51.764;6.402;2023-04-15T07:37:46;15.05;;;8.18;;
68886;SDS011;55925;51.764;6.402;2023-04-15T07:40:13;14.80;;;8.15;;
68886;SDS011;55925;51.764;6.402;2023-04-15T07:42:40;14.60;;;7.78;;
68886;SDS011;55925;51.764;6.402;2023-04-15T07:45:06;14.27;;;7.97;;
68886;SDS011;55925;51.764;6.402;2023-04-15T07:47:33;13.98;;;6.93;;
68886;SDS011;55925;51.764;6.402;2023-04-15T07:49:59;14.18;;;8.25;;
68886;SDS011;55925;51.764;6.402;2023-04-15T07:52:26;14.35;;;8.57;;
68886;SDS011;55925;51.764;6.402;2023-04-15T07:54:52;17.95;;;9.95;;
68886;SDS011;55925;51.764;6.402;2023-04-15T07:57:18;13.18;;;6.38;;
68886;SDS011;55925;51.764;6.402;2023-04-15T07:59:44;15.88;;;8.25;;
68886;SDS011;55925;51.764;6.402;2023-04-15T08:02:10;14.30;;;7.88;;
68886;SDS011;55925;51.764;6.402;2023-04-15T08:04:36;13.73;;;6.88;;
68886;SDS011;55925;51.764;6.402;2023-04-15T08:07:03;13.05;;;6.85;;
68886;SDS011;55925;51.764;6.402;2023-04-15T08:09:30;14.25;;;7.15;;
68886;SDS011;55925;51.764;6.402;2023-04-15T08:11:56;12.90;;;7.10;;
68886;SDS011;55925;51.764;6.402;2023-04-15T08:14:23;14.02;;;7.30;;
68886;SDS011;55925;51.764;6.402;2023-04-15T08:16:49;12.13;;;5.93;;
68886;SDS011;55925;51.764;6.402;2023-04-15T08:19:15;11.90;;;5.38;;
68886;SDS011;55925;51.764;6.402;2023-04-15T08:21:41;9.57;;;5.22;;
68886;SDS011;55925;51.764;6.402;2023-04-15T08:24:07;11.05;;;5.53;;
68886;SDS011;55925;51.764;6.402;2023-04-15T08:26:33;10.30;;;5.53;;
68886;SDS011;55925;51.764;6.402;2023-04-15T08:28:59;8.73;;;4.60;;
68886;SDS011;55925;51.764;6.402;2023-04-15T08:31:26;8.40;;;4.72;;
68886;SDS011;55925;51.764;6.402;2023-04-15T08:33:55;9.68;;;5.30;;
68886;SDS011;55925;51.764;6.402;2023-04-15T08:36:21;9.63;;;5.03;;
68886;SDS011;55925;51.764;6.402;2023-04-15T08:38:47;9.45;;;4.38;;
68886;SDS011;55925;51.764;6.402;2023-04-15T08:41:21;7.72;;;4.47;;
68886;SDS011;55925;51.764;6.402;2023-04-15T08:44:00;8.48;;;4.22;;
68886;SDS011;55925;51.764;6.402;2023-04-15T08:46:29;9.50;;;4.63;;
68886;SDS011;55925;51.764;6.402;2023-04-15T08:48:56;9.02;;;4.53;;
68886;SDS011;55925;51.764;6.402;2023-04-15T08:51:23;7.25;;;4.05;;
68886;SDS011;55925;51.764;6.402;2023-04-15T08:53:49;8.32;;;4.63;;
68886;SDS011;55925;51.764;6.402;2023-04-15T08:56:16;8.90;;;4.68;;
68886;SDS011;55925;51.764;6.402;2023-04-15T08:58:43;7.53;;;4.43;;
68886;SDS011;55925;51.764;6.402;2023-04-15T09:01:12;8.20;;;4.32;;
68886;SDS011;55925;51.764;6.402;2023-04-15T09:03:39;9.13;;;5.32;;
68886;SDS011;55925;51.764;6.402;2023-04-15T09:06:05;9.75;;;5.50;;
68886;SDS011;55925;51.764;6.402;2023-04-15T09:08:31;10.63;;;5.25;;
68886;SDS011;55925;51.764;6.402;2023-04-15T09:11:03;7.50;;;4.53;;
68886;SDS011;55925;51.764;6.402;2023-04-15T09:13:30;9.07;;;4.78;;
68886;SDS011;55925;51.764;6.402;2023-04-15T09:15:56;8.32;;;4.50;;
68886;SDS011;55925;51.764;6.402;2023-04-15T09:18:32;7.93;;;4.75;;
68886;SDS011;55925;51.764;6.402;2023-04-15T09:21:08;8.43;;;4.70;;
68886;SDS011;55925;51.764;6.402;2023-04-15T09:23:35;9.27;;;4.82;;
68886;SDS011;55925;51.764;6.402;2023-04-15T09:26:02;9.77;;;4.20;;
68886;SDS011;55925;51.764;6.402;2023-04-15T09:28:28;8.05;;;4.45;;
68886;SDS011;55925;51.764;6.402;2023-04-15T09:30:55;10.20;;;4.60;;
68886;SDS011;55925;51.764;6.402;2023-04-15T09:33:21;8.02;;;4.25;;
68886;SDS011;55925;51.764;6.402;2023-04-15T09:35:58;10.05;;;5.38;;
68886;SDS011;55925;51.764;6.402;2023-04-15T09:38:24;8.18;;;3.88;;
68886;SDS011;55925;51.764;6.402;2023-04-15T09:40:50;8.63;;;4.63;;
68886;SDS011;55925;51.764;6.402;2023-04-15T09:43:16;7.28;;;4.55;;
68886;SDS011;55925;51.764;6.402;2023-04-15T09:45:52;10.63;;;5.53;;
68886;SDS011;55925;51.764;6.402;2023-04-15T09:50:47;9.52;;;5.18;;
68886;SDS011;55925;51.764;6.402;2023-04-15T09:53:20;9.13;;;4.47;;
68886;SDS011;55925;51.764;6.402;2023-04-15T09:55:50;7.25;;;4.15;;
68886;SDS011;55925;51.764;6.402;2023-04-15T09:58:22;8.45;;;4.80;;
68886;SDS011;55925;51.764;6.402;2023-04-15T10:00:49;8.65;;;4.53;;
68886;SDS011;55925;51.764;6.402;2023-04-15T10:03:18;10.07;;;4.88;;
68886;SDS011;55925;51.764;6.402;2023-04-15T10:05:45;8.38;;;4.40;;
68886;SDS011;55925;51.764;6.402;2023-04-15T10:08:12;11.32;;;5.10;;
68886;SDS011;55925;51.764;6.402;2023-04-15T10:10:38;9.57;;;4.47;;
68886;SDS011;55925;51.764;6.402;2023-04-15T10:13:05;8.70;;;4.28;;
68886;SDS011;55925;51.764;6.402;2023-04-15T10:15:31;7.80;;;3.85;;
68886;SDS011;55925;51.764;6.402;2023-04-15T10:17:59;6.60;;;3.33;;
68886;SDS011;55925;51.764;6.402;2023-04-15T10:20:25;6.95;;;3.67;;
68886;SDS011;55925;51.764;6.402;2023-04-15T10:22:52;25.08;;;4.72;;
68886;SDS011;55925;51.764;6.402;2023-04-15T10:25:18;7.93;;;3.80;;
68886;SDS011;55925;51.764;6.402;2023-04-15T10:27:44;7.43;;;3.45;;
68886;SDS011;55925;51.764;6.402;2023-04-15T10:30:12;7.00;;;3.40;;
68886;SDS011;55925;51.764;6.402;2023-04-15T10:32:38;7.93;;;3.35;;
68886;SDS011;55925;51.764;6.402;2023-04-15T10:35:05;9.02;;;3.50;;
68886;SDS011;55925;51.764;6.402;2023-04-15T10:37:33;7.32;;;3.15;;
68886;SDS011;55925;51.764;6.402;2023-04-15T10:40:00;6.70;;;3.85;;
68886;SDS011;55925;51.764;6.402;2023-04-15T10:42:32;6.57;;;3.47;;
68886;SDS011;55925;51.764;6.402;2023-04-15T10:44:59;7.78;;;3.28;;
68886;SDS011;55925;51.764;6.402;2023-04-15T10:47:25;10.02;;;3.85;;
68886;SDS011;55925;51.764;6.402;2023-04-15T10:49:52;7.88;;;4.18;;
68886;SDS011;55925;51.764;6.402;2023-04-15T10:52:22;7.75;;;3.40;;
68886;SDS011;55925;51.764;6.402;2023-04-15T10:54:49;6.30;;;3.10;;
68886;SDS011;55925;51.764;6.402;2023-04-15T10:57:26;7.32;;;3.45;;
68886;SDS011;55925;51.764;6.402;2023-04-15T11:00:00;7.55;;;3.65;;
68886;SDS011;55925;51.764;6.402;2023-04-15T11:04:57;8.07;;;3.55;;
68886;SDS011;55925;51.764;6.402;2023-04-15T11:10:02;6.03;;;3.33;;
68886;SDS011;55925;51.764;6.402;2023-04-15T11:12:35;6.25;;;3.22;;
68886;SDS011;55925;51.764;6.402;2023-04-15T11:17:46;7.88;;;3.72;;
68886;SDS011;55925;51.764;6.402;2023-04-15T11:20:15;7.05;;;3.78;;
68886;SDS011;55925;51.764;6.402;2023-04-15T11:22:49;6.35;;;3.28;;
68886;SDS011;55925;51.764;6.402;2023-04-15T11:25:21;8.13;;;3.70;;
68886;SDS011;55925;51.764;6.402;2023-04-15T11:27:48;7.63;;;3.42;;
68886;SDS011;55925;51.764;6.402;2023-04-15T11:30:17;6.95;;;3.22;;
68886;SDS011;55925;51.764;6.402;2023-04-15T11:32:45;8.40;;;3.72;;
68886;SDS011;55925;51.764;6.402;2023-04-15T11:35:11;6.70;;;3.90;;
68886;SDS011;55925;51.764;6.402;2023-04-15T11:37:37;7.88;;;3.92;;
68886;SDS011;55925;51.764;6.402;2023-04-15T11:40:03;7.60;;;3.47;;
68886;SDS011;55925;51.764;6.402;2023-04-15T11:42:29;5.60;;;3.00;;
68886;SDS011;55925;51.764;6.402;2023-04-15T11:45:05;6.88;;;3.30;;
68886;SDS011;55925;51.764;6.402;2023-04-15T11:47:31;6.88;;;3.03;;
68886;SDS011;55925;51.764;6.402;2023-04-15T11:50:12;8.40;;;3.33;;
68886;SDS011;55925;51.764;6.402;2023-04-15T11:52:38;5.47;;;2.60;;
68886;SDS011;55925;51.764;6.402;2023-04-15T11:55:05;6.60;;;3.15;;
68886;SDS011;55925;51.764;6.402;2023-04-15T11:57:33;6.93;;;2.95;;
68886;SDS011;55925;51.764;6.402;2023-04-15T11:59:59;5.65;;;2.72;;
68886;SDS011;55925;51.764;6.402;2023-04-15T12:02:35;5.85;;;2.70;;
68886;SDS011;55925;51.764;6.402;2023-04-15T12:05:04;5.82;;;2.63;;
68886;SDS011;55925;51.764;6.402;2023-04-15T12:07:30;5.07;;;2.92;;
68886;SDS011;55925;51.764;6.402;2023-04-15T12:09:57;6.13;;;2.85;;
68886;SDS011;55925;51.764;6.402;2023-04-15T12:12:27;6.20;;;2.58;;
68886;SDS011;55925;51.764;6.402;2023-04-15T12:14:55;4.93;;;2.50;;
68886;SDS011;55925;51.764;6.402;2023-04-15T12:17:22;6.22;;;2.60;;
68886;SDS011;55925;51.764;6.402;2023-04-15T12:19:54;7.25;;;2.65;;
68886;SDS011;55925;51.764;6.402;2023-04-15T12:22:21;5.85;;;3.13;;
68886;SDS011;55925;51.764;6.402;2023-04-15T12:24:47;6.57;;;3.40;;
68886;SDS011;55925;51.764;6.402;2023-04-15T12:27:18;6.75;;;2.97;;
68886;SDS011;55925;51.764;6.402;2023-04-15T12:29:45;4.50;;;2.65;;
68886;SDS011;55925;51.764;6.402;2023-04-15T12:32:12;6.80;;;3.30;;
68886;SDS011;55925;51.764;6.402;2023-04-15T12:34:39;6.82;;;3.38;;
68886;SDS011;55925;51.764;6.402;2023-04-15T12:37:07;6.47;;;2.92;;
68886;SDS011;55925;51.764;6.402;2023-04-15T12:39:37;6.38;;;3.20;;
68886;SDS011;55925;51.764;6.402;2023-04-15T12:42:04;8.38;;;3.63;;
68886;SDS011;55925;51.764;6.402;2023-04-15T12:44:30;6.25;;;2.88;;
68886;SDS011;55925;51.764;6.402;2023-04-15T12:46:57;7.63;;;3.15;;
68886;SDS011;55925;51.764;6.402;2023-04-15T12:49:23;7.32;;;3.38;;
68886;SDS011;55925;51.764;6.402;2023-04-15T12:51:59;6.00;;;3.17;;
68886;SDS011;55925;51.764;6.402;2023-04-15T12:54:26;6.95;;;2.92;;
68886;SDS011;55925;51.764;6.402;2023-04-15T12:56:52;6.30;;;2.78;;
68886;SDS011;55925;51.764;6.402;2023-04-15T12:59:19;8.50;;;3.00;;
68886;SDS011;55925;51.764;6.402;2023-04-15T13:01:46;5.60;;;3.17;;
68886;SDS011;55925;51.764;6.402;2023-04-15T13:04:12;7.32;;;3.20;;
68886;SDS011;55925;51.764;6.402;2023-04-15T13:06:38;7.95;;;2.65;;
68886;SDS011;55925;51.764;6.402;2023-04-15T13:09:05;5.80;;;2.67;;
68886;SDS011;55925;51.764;6.402;2023-04-15T13:11:31;5.22;;;2.45;;
68886;SDS011;55925;51.764;6.402;2023-04-15T13:13:58;5.75;;;2.40;;
68886;SDS011;55925;51.764;6.402;2023-04-15T13:16:24;3.92;;;2.30;;
68886;SDS011;55925;51.764;6.402;2023-04-15T13:18:50;6.28;;;2.72;;
68886;SDS011;55925;51.764;6.402;2023-04-15T13:21:18;4.85;;;2.70;;
68886;SDS011;55925;51.764;6.402;2023-04-15T13:23:44;5.57;;;2.70;;
68886;SDS011;55925;51.764;6.402;2023-04-15T13:26:11;7.90;;;3.17;;
68886;SDS011;55925;51.764;6.402;2023-04-15T13:28:37;6.65;;;3.45;;
68886;SDS011;55925;51.764;6.402;2023-04-15T13:31:03;6.80;;;2.42;;
68886;SDS011;55925;51.764;6.402;2023-04-15T13:33:30;6.22;;;2.75;;
68886;SDS011;55925;51.764;6.402;2023-04-15T13:35:56;5.18;;;2.20;;
68886;SDS011;55925;51.764;6.402;2023-04-15T13:38:22;7.05;;;1.92;;
68886;SDS011;55925;51.764;6.402;2023-04-15T13:40:49;6.80;;;2.50;;
68886;SDS011;55925;51.764;6.402;2023-04-15T13:43:15;4.40;;;2.40;;
68886;SDS011;55925;51.764;6.402;2023-04-15T13:45:41;5.28;;;2.30;;
68886;SDS011;55925;51.764;6.402;2023-04-15T13:48:07;5.80;;;2.00;;
68886;SDS011;55925;51.764;6.402;2023-04-15T13:50:33;4.05;;;2.38;;
68886;SDS011;55925;51.764;6.402;2023-04-15T13:53:00;4.38;;;2.17;;
68886;SDS011;55925;51.764;6.402;2023-04-15T13:55:26;4.95;;;2.20;;
68886;SDS011;55925;51.764;6.402;2023-04-15T13:57:52;4.65;;;2.05;;
68886;SDS011;55925;51.764;6.402;2023-04-15T14:00:18;4.22;;;2.13;;
68886;SDS011;55925;51.764;6.402;2023-04-15T14:02:44;4.15;;;2.15;;
68886;SDS011;55925;51.764;6.402;2023-04-15T14:05:10;5.43;;;2.10;;
68886;SDS011;55925;51.764;6.402;2023-04-15T14:07:36;4.22;;;1.80;;
68886;SDS011;55925;51.764;6.402;2023-04-15T14:10:02;4.20;;;1.80;;
68886;SDS011;55925;51.764;6.402;2023-04-15T14:12:28;5.30;;;2.17;;
68886;SDS011;55925;51.764;6.402;2023-04-15T14:14:54;6.20;;;2.00;;
68886;SDS011;55925;51.764;6.402;2023-04-15T14:17:20;5.18;;;2.00;;
68886;SDS011;55925;51.764;6.402;2023-04-15T14:19:46;4.25;;;1.80;;
68886;SDS011;55925;51.764;6.402;2023-04-15T14:22:12;3.97;;;1.95;;
68886;SDS011;55925;51.764;6.402;2023-04-15T14:24:38;4.55;;;2.30;;
68886;SDS011;55925;51.764;6.402;2023-04-15T14:27:05;5.03;;;2.10;;
68886;SDS011;55925;51.764;6.402;2023-04-15T14:29:32;5.40;;;1.70;;
68886;SDS011;55925;51.764;6.402;2023-04-15T14:31:58;4.18;;;1.70;;
68886;SDS011;55925;51.764;6.402;2023-04-15T14:34:24;4.82;;;2.00;;
68886;SDS011;55925;51.764;6.402;2023-04-15T14:36:51;4.57;;;2.08;;
68886;SDS011;55925;51.764;6.402;2023-04-15T14:39:17;4.57;;;2.13;;
68886;SDS011;55925;51.764;6.402;2023-04-15T14:41:43;5.18;;;2.47;;
68886;SDS011;55925;51.764;6.402;2023-04-15T14:44:09;4.78;;;1.90;;
68886;SDS011;55925;51.764;6.402;2023-04-15T14:46:36;4.15;;;2.05;;
68886;SDS011;55925;51.764;6.402;2023-04-15T14:49:02;4.22;;;2.10;;